685  
SHUS65 KGJT 312026  
FWOGJT  
 
DAILY FIRE WEATHER OBSERVATION  
NATIONAL WEATHER SERVICE GRAND JUNCTION CO  
212 PM MDT TUE OCT 31 2017  
 
STATE OF THE WEATHER (W) 1  
DRY BULB TEMPERATURE 63 DEGREES FAHRENHEIT  
RELATIVE HUMIDITY (RH) 28 PERCENT  
LIGHTNING ACTIVITY LEVEL  
(LAL - MIDNIGHT TO 2 PM) 1  
WIND DIRECTION 315 DEGREES (C IF CALM)  
WIND SPEED 17 MPH  
MAX TEMP (2 PM - 2 PM) 63 DEGREES FAHRENHEIT  
MIN TEMP (2 PM - 2 PM) 38 DEGREES FAHRENHEIT  
MAX RH (2 PM - 2 PM) 60 PERCENT  
MIN RH (2 PM - 2 PM) 28 PERCENT  
PCPN DURATION 1.0 HOURS  
PCPN AMT (2 PM - 2 PM) T INCHES  
LAL (2 PM - 2 PM) 1  
 

 
 
METAR KGJT 311953Z 33015G20KT 10SM CLR 17/M02 A2987 RMK AO2  
SLP078 T01721017  
 
CLICK HERE TO GO TO PREVIOUS BULLETINS.

The Nexlab CO Page
The Nexlab UT Page Main Text Page